Time;durP1;ratioP1;P1;durP2;ratioP2;P2;SDS_P1;SDS_P2;PMS_P1;PMS_P2;Temp;Humidity;BMP_temperature;BMP_pressure;BME280_temperature;BME280_humidity;BME280_pressure;Samples;Min_cycle;Max_cycle;Signal;HPM_P1;HPM_P2
2023/10/02 00:02:40;;;;;;;13.13;6.03;;;;;;;11.31;100.00;101167.88;4988025;28;20215;-81
2023/10/02 00:05:07;;;;;;;15.17;6.93;;;;;;;11.42;100.00;101173.41;4986295;28;20239;-79
2023/10/02 00:07:36;;;;;;;18.03;7.17;;;;;;;11.43;100.00;101167.25;4985344;28;20223;-81
2023/10/02 00:10:04;;;;;;;14.90;6.77;;;;;;;11.41;100.00;101166.31;4986389;28;20208;-81
2023/10/02 00:12:34;;;;;;;16.00;6.47;;;;;;;11.41;100.00;101161.00;4985874;28;20203;-79
2023/10/02 00:15:12;;;;;;;15.43;7.00;;;;;;;11.35;100.00;101160.88;4970818;28;20224;-79
2023/10/02 00:17:43;;;;;;;14.23;7.47;;;;;;;11.28;100.00;101157.19;4984301;28;20199;-81
2023/10/02 00:20:21;;;;;;;14.00;6.83;;;;;;;11.24;100.00;101165.94;4971296;28;20242;-80
2023/10/02 00:22:50;;;;;;;13.13;7.07;;;;;;;11.37;100.00;101172.41;4983832;28;20293;-80
2023/10/02 00:25:20;;;;;;;15.93;7.07;;;;;;;11.49;100.00;101178.88;4989281;28;20228;-79
2023/10/02 00:27:51;;;;;;;14.63;7.10;;;;;;;11.58;100.00;101168.47;4989378;28;20245;-80
2023/10/02 00:30:23;;;;;;;15.43;7.13;;;;;;;11.63;100.00;101168.59;4986560;28;20200;-79
2023/10/02 00:32:50;;;;;;;15.20;7.60;;;;;;;11.63;100.00;101167.69;4985256;28;20207;-78
2023/10/02 00:35:17;;;;;;;15.30;7.43;;;;;;;11.51;100.00;101170.94;4991668;28;20718;-80
2023/10/02 00:37:44;;;;;;;14.03;7.00;;;;;;;11.32;100.00;101164.34;4987410;28;20688;-81
2023/10/02 00:40:30;;;;;;;14.60;7.10;;;;;;;11.26;100.00;101169.53;4982731;28;20218;-79
2023/10/02 00:42:59;;;;;;;15.67;6.57;;;;;;;11.20;100.00;101167.59;4987708;28;20215;-80
2023/10/02 00:45:42;;;;;;;13.97;6.57;;;;;;;11.14;100.00;101166.56;4987216;28;20282;-80
2023/10/02 00:48:33;;;;;;;14.73;6.87;;;;;;;11.03;100.00;101163.66;4984942;28;20519;-82
2023/10/02 00:51:05;;;;;;;14.37;7.60;;;;;;;10.99;100.00;101169.75;4987394;28;20232;-78
2023/10/02 00:53:46;;;;;;;16.33;7.00;;;;;;;10.94;100.00;101161.69;4993058;28;20404;-79
2023/10/02 00:56:22;;;;;;;13.83;6.83;;;;;;;10.94;100.00;101161.69;4984875;28;20723;-82
2023/10/02 00:59:00;;;;;;;14.73;6.73;;;;;;;10.93;100.00;101164.31;4987804;28;20215;-81
2023/10/02 01:01:29;;;;;;;14.27;6.37;;;;;;;11.01;100.00;101161.84;4985156;28;20655;-82
2023/10/02 01:04:09;;;;;;;15.50;7.63;;;;;;;11.14;100.00;101156.84;4987774;28;20207;-81
2023/10/02 01:09:27;;;;;;;15.03;6.73;;;;;;;11.06;100.00;101162.84;4988885;28;20312;-78
2023/10/02 01:11:57;;;;;;;15.13;6.90;;;;;;;11.02;100.00;101167.19;4985920;28;20268;-81
2023/10/02 01:17:14;;;;;;;14.67;6.80;;;;;;;10.89;100.00;101162.44;4979403;28;20212;-73
2023/10/02 01:19:53;;;;;;;12.30;6.10;;;;;;;10.82;100.00;101153.47;4982685;28;20204;-72
2023/10/02 01:22:42;;;;;;;14.83;6.40;;;;;;;10.86;100.00;101165.91;4985164;28;20294;-71
2023/10/02 01:25:16;;;;;;;14.23;6.60;;;;;;;10.79;100.00;101171.91;4982578;28;20304;-71
2023/10/02 01:27:48;;;;;;;13.90;6.43;;;;;;;10.74;100.00;101172.66;4981607;28;20229;-71
2023/10/02 01:30:18;;;;;;;14.87;6.17;;;;;;;10.71;100.00;101165.53;4984372;28;20222;-71
2023/10/02 01:35:56;;;;;;;13.60;6.73;;;;;;;10.66;100.00;101169.81;4980441;28;20225;-71
2023/10/02 01:38:34;;;;;;;16.60;6.57;;;;;;;10.65;100.00;101168.91;4984773;28;20202;-71
2023/10/02 01:41:06;;;;;;;14.47;6.30;;;;;;;10.73;100.00;101170.84;4988191;28;20676;-72
2023/10/02 01:43:42;;;;;;;15.23;6.70;;;;;;;10.73;100.00;101165.56;4988334;28;20237;-70
2023/10/02 01:46:11;;;;;;;14.53;6.43;;;;;;;10.67;100.00;101164.53;4983664;28;20730;-71
2023/10/02 01:48:41;;;;;;;13.77;5.97;;;;;;;10.63;100.00;101160.03;4983086;28;20229;-71
2023/10/02 01:51:18;;;;;;;13.50;6.23;;;;;;;10.62;100.00;101155.59;4984675;28;20204;-71
2023/10/02 01:53:51;;;;;;;13.50;6.17;;;;;;;10.60;100.00;101154.66;4984536;28;20651;-71
2023/10/02 01:56:19;;;;;;;14.50;6.23;;;;;;;10.58;100.00;101148.44;4986406;28;20222;-71
2023/10/02 01:58:48;;;;;;;17.73;6.30;;;;;;;10.64;100.00;101148.56;4979018;28;20200;-72
2023/10/02 02:01:16;;;;;;;12.47;6.23;;;;;;;10.89;100.00;101154.50;4988111;28;20294;-72
2023/10/02 02:03:48;;;;;;;17.90;7.03;;;;;;;11.02;100.00;101145.06;4992038;28;20201;-72
2023/10/02 02:06:22;;;;;;;12.87;6.63;;;;;;;10.89;100.00;101151.84;4985534;28;20241;-74
2023/10/02 02:08:53;;;;;;;17.93;6.83;;;;;;;10.81;100.00;101151.66;4987942;28;20679;-70
2023/10/02 02:11:21;;;;;;;17.20;7.50;;;;;;;10.88;100.00;101148.31;4985844;28;20251;-70
2023/10/02 02:13:55;;;;;;;14.03;6.70;;;;;;;10.86;100.00;101150.03;4986607;28;20254;-70
2023/10/02 02:16:38;;;;;;;16.63;8.27;;;;;;;10.94;100.00;101153.75;4982707;28;20364;-70
2023/10/02 02:19:05;;;;;;;18.50;7.27;;;;;;;10.81;100.00;101141.06;4987340;28;20199;-70
2023/10/02 02:21:32;;;;;;;14.67;6.60;;;;;;;10.79;100.00;101149.81;4981889;28;20624;-70
2023/10/02 02:24:08;;;;;;;13.93;7.10;;;;;;;10.83;100.00;101144.66;4984760;28;20205;-70
2023/10/02 02:26:37;;;;;;;16.73;7.17;;;;;;;10.86;100.00;101150.03;4985194;28;20227;-70
2023/10/02 02:29:04;;;;;;;15.47;6.60;;;;;;;10.80;100.00;101141.91;4984144;28;20203;-72
2023/10/02 02:31:39;;;;;;;12.90;7.00;;;;;;;10.77;100.00;101152.41;4986277;28;20213;-71
2023/10/02 02:34:14;;;;;;;14.73;6.90;;;;;;;10.76;100.00;101155.94;4983983;28;20200;-72
2023/10/02 02:36:43;;;;;;;14.50;6.57;;;;;;;10.84;100.00;101146.44;4981040;28;20308;-73
2023/10/02 02:39:15;;;;;;;17.97;6.90;;;;;;;10.95;100.00;101159.94;4985501;28;20207;-72
2023/10/02 02:41:43;;;;;;;12.90;6.93;;;;;;;11.03;100.00;101160.13;4988632;28;20507;-73
2023/10/02 02:44:29;;;;;;;16.17;7.10;;;;;;;11.08;100.00;101159.38;4981629;28;20205;-72
2023/10/02 02:46:55;;;;;;;14.27;7.07;;;;;;;11.13;100.00;101164.78;4984671;28;20231;-70
2023/10/02 02:49:25;;;;;;;15.17;7.00;;;;;;;11.13;100.00;101160.38;4984652;28;20559;-72
2023/10/02 02:51:55;;;;;;;13.57;7.27;;;;;;;11.11;100.00;101153.25;4980513;28;20206;-72
2023/10/02 02:54:25;;;;;;;14.33;7.23;;;;;;;11.17;100.00;101156.91;4982823;28;20207;-72
2023/10/02 02:56:57;;;;;;;12.70;6.83;;;;;;;11.12;100.00;101150.63;4983332;28;20264;-73
2023/10/02 02:59:28;;;;;;;14.97;6.97;;;;;;;11.09;100.00;101150.56;4983575;28;20643;-72
2023/10/02 03:02:10;;;;;;;12.43;6.97;;;;;;;11.02;100.00;101153.03;4966867;28;20313;-72
2023/10/02 03:04:40;;;;;;;17.10;7.33;;;;;;;10.97;100.00;101142.31;4984471;28;20313;-72
2023/10/02 03:07:18;;;;;;;15.07;6.67;;;;;;;10.92;100.00;101149.28;4985666;28;20217;-74
2023/10/02 03:09:45;;;;;;;15.20;7.60;;;;;;;11.01;100.00;101146.84;4982099;28;20208;-74
2023/10/02 03:12:12;;;;;;;16.07;7.30;;;;;;;11.06;100.00;101155.78;4983388;28;20556;-75
2023/10/02 03:14:38;;;;;;;14.90;7.50;;;;;;;11.13;100.00;101152.41;4985491;28;20225;-73
2023/10/02 03:17:28;;;;;;;16.70;7.40;;;;;;;11.05;100.00;101146.03;4987821;28;20197;-75
2023/10/02 03:19:58;;;;;;;17.17;7.07;;;;;;;10.96;100.00;101154.69;4980919;28;20202;-72
2023/10/02 03:22:27;;;;;;;18.30;7.60;;;;;;;10.90;100.00;101148.34;4984618;28;20218;-72
2023/10/02 03:25:24;;;;;;;14.30;7.00;;;;;;;10.78;100.00;101137.41;4985682;28;20681;-72
2023/10/02 03:27:48;;;;;;;13.47;7.10;;;;;;;10.66;100.00;101144.22;4984010;28;20226;-72
2023/10/02 03:30:35;;;;;;;14.07;6.73;;;;;;;10.62;100.00;101146.75;4981626;28;20212;-72
2023/10/02 03:33:03;;;;;;;18.27;7.43;;;;;;;10.55;100.00;101145.72;4986355;28;20312;-72
2023/10/02 03:35:39;;;;;;;12.83;6.73;;;;;;;10.51;100.00;101140.28;4988178;28;20277;-72
2023/10/02 03:38:05;;;;;;;15.43;6.77;;;;;;;10.50;100.00;101142.03;4984157;28;20584;-72
2023/10/02 03:40:32;;;;;;;12.57;6.47;;;;;;;10.47;100.00;101141.97;4983009;28;20197;-72
2023/10/02 03:43:18;;;;;;;15.23;6.37;;;;;;;10.44;100.00;101138.34;4986065;28;20217;-72
2023/10/02 03:45:46;;;;;;;16.90;6.40;;;;;;;10.43;100.00;101137.47;4985238;28;20627;-72
2023/10/02 03:48:15;;;;;;;12.73;6.23;;;;;;;10.39;100.00;101137.31;4989161;28;20226;-77
2023/10/02 03:50:41;;;;;;;12.60;6.47;;;;;;;10.39;100.00;101132.91;4989560;28;20217;-72
2023/10/02 03:53:28;;;;;;;15.43;7.23;;;;;;;10.41;100.00;101131.22;4988358;28;20207;-72
2023/10/02 03:58:52;;;;;;;15.10;7.17;;;;;;;10.41;100.00;101131.22;4989925;28;20208;-72
2023/10/02 04:01:29;;;;;;;13.17;6.80;;;;;;;10.39;100.00;101127.59;4988669;28;20214;-72
2023/10/02 04:06:43;;;;;;;19.37;7.97;;;;;;;10.42;100.00;101124.19;4987862;28;20728;-72
2023/10/02 04:11:45;;;;;;;13.93;7.47;;;;;;;10.34;100.00;101122.19;4986696;28;20206;-71
2023/10/02 04:14:17;;;;;;;16.37;7.20;;;;;;;10.29;100.00;101122.94;4987164;28;20246;-71
2023/10/02 04:16:46;;;;;;;16.20;7.53;;;;;;;10.30;100.00;101124.72;4986679;28;20223;-75
2023/10/02 04:19:15;;;;;;;13.83;7.13;;;;;;;10.30;100.00;101122.97;4988202;28;20694;-71
2023/10/02 04:21:45;;;;;;;17.37;8.23;;;;;;;10.31;100.00;101127.41;4988635;28;20214;-71
2023/10/02 04:24:12;;;;;;;14.80;7.60;;;;;;;10.31;100.00;101130.06;4990653;28;20198;-71
2023/10/02 04:26:41;;;;;;;15.87;8.27;;;;;;;10.31;100.00;101134.47;4986339;28;20334;-71
2023/10/02 04:29:26;;;;;;;14.40;7.30;;;;;;;10.25;100.00;101129.00;4985745;28;20267;-71
2023/10/02 04:32:14;;;;;;;17.47;8.03;;;;;;;10.20;100.00;101123.59;4989533;28;20679;-71
2023/10/02 04:34:50;;;;;;;15.10;6.90;;;;;;;10.23;100.00;101128.06;4986840;28;20792;-70
2023/10/02 04:37:20;;;;;;;13.33;7.17;;;;;;;10.40;100.00;101132.06;4985655;28;20203;-71
2023/10/02 04:39:53;;;;;;;16.83;7.70;;;;;;;10.49;100.00;101132.31;4986832;28;20229;-71
2023/10/02 04:42:29;;;;;;;17.90;7.80;;;;;;;10.51;100.00;101138.53;4970428;28;20228;-71
2023/10/02 04:44:58;;;;;;;17.23;7.90;;;;;;;10.48;100.00;101142.88;4986244;28;20232;-71
2023/10/02 04:47:30;;;;;;;15.97;7.47;;;;;;;10.43;100.00;101149.81;4988150;28;20201;-71
2023/10/02 04:55:23;;;;;;;14.03;6.80;;;;;;;10.19;100.00;101155.28;4983177;28;20282;-71
2023/10/02 04:57:55;;;;;;;16.03;7.50;;;;;;;10.14;100.00;101151.63;4988523;28;20199;-71
2023/10/02 05:00:35;;;;;;;16.40;7.03;;;;;;;10.04;100.00;101159.31;4987878;28;20213;-71
2023/10/02 05:03:09;;;;;;;18.17;7.40;;;;;;;9.99;100.00;101149.44;4984990;28;20289;-71
2023/10/02 05:05:47;;;;;;;15.00;7.13;;;;;;;9.95;100.00;101159.03;4988866;28;20246;-71
2023/10/02 05:08:19;;;;;;;19.23;7.40;;;;;;;9.91;100.00;101156.25;4987978;28;20663;-70
2023/10/02 05:11:50;;;;;;;17.03;6.77;;;;;;;9.91;100.00;101157.16;4988678;28;20215;-71
2023/10/02 05:13:59;;;;;;;14.60;6.07;;;;;;;9.89;100.00;101145.63;4979647;28;20201;-70
2023/10/02 05:16:29;;;;;;;13.63;6.73;;;;;;;9.87;100.00;101147.34;4987467;28;20224;-71
2023/10/02 05:18:56;;;;;;;15.10;7.37;;;;;;;9.95;100.00;101147.56;4987086;28;20263;-71
2023/10/02 05:21:36;;;;;;;16.33;7.47;;;;;;;10.10;100.00;101144.47;4988068;28;20208;-71
2023/10/02 05:24:03;;;;;;;18.03;7.80;;;;;;;10.24;100.00;101148.41;4986564;28;20204;-71
2023/10/02 05:26:33;;;;;;;16.63;7.27;;;;;;;10.32;100.00;101147.75;4987849;28;20596;-71
2023/10/02 05:29:06;;;;;;;16.13;7.43;;;;;;;10.41;100.00;101144.47;4987197;28;20316;-71
2023/10/02 05:31:40;;;;;;;15.30;7.97;;;;;;;10.42;100.00;101138.31;4985814;28;20200;-71
2023/10/02 05:34:24;;;;;;;14.27;7.57;;;;;;;10.39;100.00;101150.53;4986860;28;20774;-71
2023/10/02 05:37:39;;;;;;;14.87;7.10;;;;;;;10.36;100.00;101151.38;4985440;28;20224;-71
2023/10/02 05:39:41;;;;;;;17.33;7.23;;;;;;;10.28;100.00;101151.16;4975184;28;21899;-71
2023/10/02 05:42:13;;;;;;;14.03;6.93;;;;;;;10.23;100.00;101152.78;4989086;28;20204;-71
2023/10/02 05:44:42;;;;;;;14.37;7.17;;;;;;;10.20;100.00;101158.00;4975419;28;20322;-72
2023/10/02 05:47:11;;;;;;;16.27;7.63;;;;;;;10.19;100.00;101147.34;4985393;28;20201;-74
2023/10/02 05:49:48;;;;;;;16.13;7.37;;;;;;;10.29;100.00;101163.53;4985427;28;20300;-73
2023/10/02 05:52:18;;;;;;;17.83;7.97;;;;;;;10.42;100.00;101162.16;4980780;28;20231;-74
2023/10/02 05:55:09;;;;;;;24.77;9.97;;;;;;;10.58;100.00;101158.13;4983209;28;20312;-73
2023/10/02 05:57:36;;;;;;;19.13;8.83;;;;;;;10.78;100.00;101156.84;4982987;28;20205;-72
2023/10/02 06:00:16;;;;;;;22.50;9.67;;;;;;;11.00;100.00;101163.59;4976168;28;20307;-73
2023/10/02 06:02:57;;;;;;;21.80;9.23;;;;;;;11.19;100.00;101167.56;4986682;28;20208;-72
2023/10/02 06:05:28;;;;;;;20.53;9.27;;;;;;;11.37;100.00;101172.41;4987131;28;20229;-72
2023/10/02 06:07:57;;;;;;;24.43;9.60;;;;;;;11.46;100.00;101165.53;4988788;28;20216;-72
2023/10/02 06:10:26;;;;;;;24.90;8.87;;;;;;;11.61;100.00;101170.31;4990378;28;20561;-73
2023/10/02 06:13:05;;;;;;;21.43;10.10;;;;;;;11.66;100.00;101167.75;4988123;28;20202;-76
2023/10/02 06:15:48;;;;;;;23.60;9.37;;;;;;;11.73;100.00;101167.03;4989478;28;20311;-74
2023/10/02 06:18:29;;;;;;;21.43;8.77;;;;;;;11.75;100.00;101176.81;4985803;28;20198;-75
2023/10/02 06:21:00;;;;;;;29.90;9.60;;;;;;;11.91;100.00;101172.72;4988869;28;20204;-74
2023/10/02 06:23:38;;;;;;;28.73;9.77;;;;;;;12.01;100.00;101177.38;4970496;28;20228;-74
2023/10/02 06:26:11;;;;;;;31.77;9.93;;;;;;;12.12;100.00;101183.78;4988269;28;20229;-74
2023/10/02 06:28:39;;;;;;;19.27;8.93;;;;;;;12.18;100.00;101169.75;4972165;28;20301;-81
2023/10/02 06:31:06;;;;;;;22.50;8.77;;;;;;;12.36;100.00;101174.50;4984176;28;20208;-81
2023/10/02 06:33:36;;;;;;;19.67;8.80;;;;;;;12.22;100.00;101171.59;4988111;28;20582;-81
2023/10/02 06:36:05;;;;;;;19.30;9.47;;;;;;;12.24;100.00;101170.75;4988836;28;20314;-82
2023/10/02 06:38:32;;;;;;;20.43;9.17;;;;;;;12.26;100.00;101172.53;4982820;28;20348;-81
2023/10/02 06:40:59;;;;;;;19.07;9.07;;;;;;;12.19;100.00;101168.88;4989024;28;20577;-83
2023/10/02 06:43:30;;;;;;;19.50;9.13;;;;;;;12.10;100.00;101174.91;4989662;28;20338;-83
2023/10/02 06:46:07;;;;;;;22.10;8.83;;;;;;;12.08;100.00;101179.28;4983445;28;20228;-80
2023/10/02 06:48:35;;;;;;;19.23;8.63;;;;;;;12.04;100.00;101168.59;4988153;28;20227;-82
2023/10/02 06:51:04;;;;;;;16.50;8.80;;;;;;;12.01;100.00;101172.06;4987101;28;20215;-82
2023/10/02 06:53:31;;;;;;;22.43;9.80;;;;;;;12.03;100.00;101177.41;4986886;28;20217;-82
2023/10/02 06:56:06;;;;;;;15.37;8.47;;;;;;;12.06;100.00;101174.81;4985153;28;20282;-82
2023/10/02 06:58:46;;;;;;;17.13;8.40;;;;;;;12.13;100.00;101184.69;4986588;28;20192;-81
2023/10/02 07:01:13;;;;;;;21.23;9.27;;;;;;;12.22;100.00;101176.91;4986022;28;20200;-83
2023/10/02 07:03:40;;;;;;;19.47;9.20;;;;;;;12.28;100.00;101181.44;4982224;28;20712;-82
2023/10/02 07:06:12;;;;;;;23.10;9.20;;;;;;;12.37;100.00;101170.97;4987956;28;20700;-84
2023/10/02 07:08:41;;;;;;;22.53;9.43;;;;;;;12.44;100.00;101162.28;4979411;28;20224;-82
2023/10/02 07:11:11;;;;;;;22.43;10.10;;;;;;;12.45;100.00;101172.03;4986438;28;20295;-84
2023/10/02 07:13:51;;;;;;;17.53;8.60;;;;;;;12.50;100.00;101176.56;4988537;28;20622;-83
2023/10/02 07:16:17;;;;;;;21.17;10.50;;;;;;;12.66;100.00;101180.38;4987080;28;20431;-80
2023/10/02 07:18:49;;;;;;;18.60;9.53;;;;;;;12.78;100.00;101177.03;4991821;28;20204;-77
2023/10/02 07:21:19;;;;;;;20.77;9.80;;;;;;;12.91;100.00;101179.03;4987304;28;20201;-77
2023/10/02 07:23:46;;;;;;;20.07;9.93;;;;;;;13.01;100.00;101178.31;4992276;28;20223;-75
2023/10/02 07:26:14;;;;;;;19.93;10.10;;;;;;;13.08;100.00;101179.28;4974153;28;20649;-74
2023/10/02 07:28:50;;;;;;;22.13;10.00;;;;;;;13.20;100.00;101167.97;4994189;28;20272;-74
2023/10/02 07:31:18;;;;;;;19.27;9.13;;;;;;;13.29;100.00;101177.00;4988999;28;20490;-77
2023/10/02 07:33:44;;;;;;;20.40;10.67;;;;;;;13.36;100.00;101173.56;4993629;28;20204;-75
2023/10/02 07:36:14;;;;;;;20.10;9.30;;;;;;;13.50;100.00;101179.06;4992401;28;20233;-76
2023/10/02 07:38:42;;;;;;;18.53;9.87;;;;;;;13.64;100.00;101164.22;4991892;28;20646;-75
2023/10/02 07:41:16;;;;;;;20.03;9.00;;;;;;;13.83;100.00;101169.75;4992069;28;20216;-75
2023/10/02 07:43:43;;;;;;;21.23;9.93;;;;;;;13.99;100.00;101174.38;4992708;28;20205;-74
2023/10/02 07:46:15;;;;;;;22.30;9.57;;;;;;;14.14;100.00;101173.69;4990851;28;20740;-75
2023/10/02 07:48:43;;;;;;;16.60;8.67;;;;;;;14.29;100.00;101172.06;4989710;28;20229;-74
2023/10/02 07:51:09;;;;;;;19.77;9.13;;;;;;;14.40;100.00;101164.19;4991480;28;20209;-75
2023/10/02 07:53:39;;;;;;;19.00;8.20;;;;;;;14.52;100.00;101174.13;4992091;28;20201;-75
2023/10/02 07:56:11;;;;;;;15.67;8.20;;;;;;;14.64;100.00;101179.56;4985354;28;20272;-75
2023/10/02 07:58:39;;;;;;;19.63;8.50;;;;;;;14.72;100.00;101178.75;4989743;28;20219;-75
2023/10/02 08:01:11;;;;;;;17.33;8.50;;;;;;;14.85;100.00;101177.13;4988048;28;20201;-76
2023/10/02 08:03:49;;;;;;;19.87;9.23;;;;;;;14.99;100.00;101179.88;5008660;28;20200;-75
2023/10/02 08:06:21;;;;;;;18.73;8.63;;;;;;;15.14;100.00;101179.09;4989347;28;20241;-74
2023/10/02 08:11:39;;;;;;;21.63;9.10;;;;;;;15.50;100.00;101186.47;4984320;28;20200;-75
2023/10/02 08:17:08;;;;;;;21.93;9.73;;;;;;;15.78;100.00;101180.44;4991076;28;20209;-74
2023/10/02 08:19:38;;;;;;;17.53;9.13;;;;;;;15.92;100.00;101181.38;4982467;28;20275;-74
2023/10/02 08:22:05;;;;;;;17.57;8.73;;;;;;;16.03;100.00;101177.88;4991518;28;20557;-73
2023/10/02 08:24:37;;;;;;;21.97;8.77;;;;;;;16.20;100.00;101173.47;4992815;28;20197;-74
2023/10/02 08:27:04;;;;;;;23.40;10.03;;;;;;;16.32;100.00;101172.63;4991409;28;20237;-73
2023/10/02 08:29:32;;;;;;;24.13;11.30;;;;;;;16.49;100.00;101176.22;4989626;28;20629;-73
2023/10/02 08:32:01;;;;;;;23.63;10.47;;;;;;;16.61;100.00;101174.47;4992920;28;20622;-73
2023/10/02 08:34:27;;;;;;;22.20;10.70;;;;;;;16.68;100.00;101178.06;4989502;28;20304;-74
2023/10/02 08:37:13;;;;;;;20.43;10.27;;;;;;;16.76;100.00;101162.00;4974027;28;20211;-74
2023/10/02 08:39:41;;;;;;;21.27;10.53;;;;;;;16.91;100.00;101181.66;4987669;28;20197;-74
2023/10/02 08:42:10;;;;;;;25.87;11.27;;;;;;;16.96;100.00;101175.41;4991257;28;20201;-74
2023/10/02 08:44:40;;;;;;;24.50;10.30;;;;;;;17.08;100.00;101173.63;4991336;28;20681;-73
2023/10/02 08:47:12;;;;;;;22.33;10.30;;;;;;;17.16;100.00;101174.50;4990566;28;20263;-74
2023/10/02 08:49:39;;;;;;;23.90;11.17;;;;;;;17.27;100.00;101171.81;4991570;28;20217;-74
2023/10/02 08:52:13;;;;;;;17.50;8.87;;;;;;;17.39;100.00;101171.78;4969479;28;20568;-74
2023/10/02 08:54:44;;;;;;;22.37;10.53;;;;;;;17.54;100.00;101171.75;4989658;28;20591;-74
2023/10/02 08:57:12;;;;;;;25.87;11.33;;;;;;;17.69;100.00;101164.63;4991306;28;20204;-73
2023/10/02 08:59:39;;;;;;;18.33;9.27;;;;;;;17.81;100.00;101160.09;4992234;28;20665;-74
2023/10/02 09:02:16;;;;;;;21.97;10.17;;;;;;;17.90;100.00;101164.53;4987366;28;20209;-74
2023/10/02 09:04:53;;;;;;;18.93;10.40;;;;;;;18.03;100.00;101166.28;4989858;28;20221;-73
2023/10/02 09:07:23;;;;;;;22.27;9.83;;;;;;;18.21;100.00;101161.69;4990481;28;20263;-74
2023/10/02 09:10:12;;;;;;;24.58;10.00;;;;;;;18.32;100.00;101158.06;4990252;28;20224;-74
2023/10/02 09:12:50;;;;;;;19.95;10.38;;;;;;;18.47;100.00;101157.09;4982421;28;20201;-73
2023/10/02 09:15:27;;;;;;;21.00;9.90;;;;;;;18.60;100.00;101152.50;4990034;28;20788;-73
2023/10/02 09:18:16;;;;;;;20.75;10.15;;;;;;;18.64;100.00;101151.63;4989473;28;20251;-73
2023/10/02 09:20:53;;;;;;;19.83;9.23;;;;;;;18.77;100.00;101156.88;4985312;28;20347;-74
2023/10/02 09:23:28;;;;;;;21.73;9.63;;;;;;;18.95;100.00;101152.28;4995438;28;20228;-75
2023/10/02 09:26:16;;;;;;;22.27;11.35;;;;;;;19.09;100.00;101148.53;4991115;28;20220;-75
2023/10/02 09:28:47;;;;;;;25.48;10.55;;;;;;;19.25;100.00;101152.00;4986744;28;20228;-74
2023/10/02 09:31:17;;;;;;;22.38;9.85;;;;;;;19.39;100.00;101147.38;4991426;28;20220;-74
2023/10/02 09:33:46;;;;;;;16.88;8.10;;;;;;;19.47;100.00;101138.31;4989373;28;20208;-75
2023/10/02 09:36:47;;;;;;;21.40;8.98;;;;;;;19.66;100.00;101134.56;4971477;28;20221;-75
2023/10/02 09:39:38;;;;;;;20.48;10.15;;;;;;;19.76;100.00;101136.22;4983705;28;20208;-75
2023/10/02 09:42:09;;;;;;;21.55;9.60;;;;;;;19.83;100.00;101137.94;4984351;28;20685;-75
2023/10/02 09:44:42;;;;;;;20.65;10.02;;;;;;;19.96;100.00;101120.72;4984603;28;20232;-75
2023/10/02 09:47:09;;;;;;;20.05;9.52;;;;;;;20.06;100.00;101126.00;4971733;28;20591;-75
2023/10/02 09:49:47;;;;;;;20.15;8.77;;;;;;;20.17;100.00;101126.72;4988686;28;20339;-75
2023/10/02 09:52:23;;;;;;;18.70;9.32;;;;;;;20.23;100.00;101126.63;4965927;28;20208;-73
2023/10/02 09:55:03;;;;;;;18.48;8.95;;;;;;;20.32;100.00;101115.72;4990263;28;20312;-74
2023/10/02 09:57:39;;;;;;;37.42;8.85;;;;;;;20.45;100.00;101117.38;4987312;28;20220;-75
2023/10/02 10:00:34;;;;;;;19.85;8.80;;;;;;;20.52;97.43;101118.16;4983186;28;20233;-75
2023/10/02 10:03:24;;;;;;;22.23;9.10;;;;;;;20.65;100.00;101114.34;4987617;28;20205;-74
2023/10/02 10:06:06;;;;;;;19.02;9.27;;;;;;;20.86;96.64;101121.19;4990281;28;20232;-74
2023/10/02 10:12:21;;;;;;;20.90;8.15;;;;;;;20.90;90.94;101099.56;4986199;28;20204;-73
2023/10/02 10:14:37;;;;;;;18.95;8.63;;;;;;;21.10;90.72;101109.97;4986591;28;20700;-75
2023/10/02 10:17:12;;;;;;;21.23;9.27;;;;;;;21.16;88.20;101111.66;4990243;28;20648;-75
2023/10/02 10:19:41;;;;;;;16.25;7.93;;;;;;;21.31;88.85;101100.66;4983079;28;20203;-75
2023/10/02 10:22:36;;;;;;;17.35;7.97;;;;;;;21.48;89.81;101106.59;4989080;28;20208;-75
2023/10/02 10:25:25;;;;;;;16.60;8.15;;;;;;;21.72;88.14;101107.00;4982149;28;20328;-75
2023/10/02 10:27:59;;;;;;;18.73;8.05;;;;;;;21.74;80.06;101107.88;4986688;28;20255;-74
2023/10/02 10:30:31;;;;;;;15.02;7.65;;;;;;;21.74;79.96;101103.38;4988107;28;21955;-74
2023/10/02 10:35:35;;;;;;;19.05;8.55;;;;;;;21.93;78.40;101103.84;4985335;28;20607;-74
2023/10/02 10:38:25;;;;;;;17.90;7.65;;;;;;;22.09;77.47;101099.94;4988612;28;20204;-74
2023/10/02 10:40:55;;;;;;;16.25;7.75;;;;;;;22.10;74.52;101104.41;4987797;28;20197;-74
2023/10/02 10:43:56;;;;;;;17.13;7.60;;;;;;;22.12;74.63;101091.78;4985747;28;20209;-74
2023/10/02 10:46:24;;;;;;;15.48;7.75;;;;;;;22.22;75.03;101089.75;4987123;28;20225;-74
2023/10/02 10:48:59;;;;;;;18.42;8.40;;;;;;;22.26;75.26;101094.13;4987208;28;20204;-74
2023/10/02 10:51:33;;;;;;;16.48;7.95;;;;;;;22.39;76.96;101078.53;4983538;28;20378;-74
2023/10/02 10:54:13;;;;;;;15.30;6.57;;;;;;;22.65;78.80;101076.09;4988710;28;20259;-74
2023/10/02 10:57:18;;;;;;;14.55;7.53;;;;;;;22.95;74.78;101077.16;4980702;28;20200;-74
2023/10/02 10:59:46;;;;;;;17.65;7.30;;;;;;;23.04;70.99;101084.13;4987016;28;20258;-75
2023/10/02 11:02:15;;;;;;;17.00;8.00;;;;;;;23.12;70.17;101080.25;4983690;28;20208;-75
2023/10/02 11:04:51;;;;;;;20.40;8.00;;;;;;;23.24;70.98;101073.66;4988540;28;20232;-74
2023/10/02 11:07:23;;;;;;;17.00;7.88;;;;;;;23.31;70.76;101071.66;4986823;28;20622;-74
2023/10/02 11:10:17;;;;;;;20.67;7.78;;;;;;;23.36;71.82;101069.72;4987299;28;20220;-75
2023/10/02 11:12:57;;;;;;;17.90;6.65;;;;;;;23.49;71.73;101063.00;4983334;28;20582;-75
2023/10/02 11:18:20;;;;;;;18.73;8.43;;;;;;;23.73;69.04;101050.63;4988563;28;20207;-74
2023/10/02 11:20:54;;;;;;;18.80;7.75;;;;;;;23.83;69.78;101041.28;4983946;28;20196;-75
2023/10/02 11:23:38;;;;;;;17.02;7.85;;;;;;;23.82;69.32;101044.94;4986668;28;20263;-75
2023/10/02 11:26:12;;;;;;;17.88;7.70;;;;;;;23.93;70.36;101050.00;4987961;28;20225;-74
2023/10/02 11:28:49;;;;;;;19.20;8.30;;;;;;;24.06;68.99;101044.19;4987415;28;20744;-76
2023/10/02 11:31:31;;;;;;;16.13;8.32;;;;;;;24.22;67.94;101041.84;4989337;28;20224;-75
2023/10/02 11:34:03;;;;;;;16.35;8.02;;;;;;;24.48;67.59;101041.03;4985660;28;20704;-74
2023/10/02 11:36:53;;;;;;;16.23;8.02;;;;;;;24.62;65.74;101035.16;4987929;28;20657;-74
2023/10/02 11:39:20;;;;;;;19.48;8.27;;;;;;;24.61;63.87;101025.25;4986273;28;20688;-74
2023/10/02 11:41:47;;;;;;;16.92;7.20;;;;;;;24.50;64.57;101030.16;4989244;28;20207;-74
2023/10/02 11:44:14;;;;;;;16.08;7.03;;;;;;;24.56;64.68;101021.81;4985329;28;20232;-75
2023/10/02 11:46:41;;;;;;;14.98;7.88;;;;;;;24.49;63.30;101013.03;4986244;28;20717;-75
2023/10/02 11:49:08;;;;;;;15.57;7.22;;;;;;;24.60;63.43;101016.25;4987980;28;20653;-75
2023/10/02 11:51:34;;;;;;;12.88;6.85;;;;;;;24.74;63.73;101004.03;4985391;28;20267;-74
2023/10/02 11:54:05;;;;;;;18.17;7.28;;;;;;;24.98;63.93;101009.50;4985689;28;20208;-75
2023/10/02 11:56:32;;;;;;;17.40;7.95;;;;;;;25.03;61.35;100997.59;4988445;28;20220;-75
2023/10/02 11:58:58;;;;;;;15.48;6.65;;;;;;;25.33;62.03;100998.31;4988622;28;20293;-75
2023/10/02 12:01:26;;;;;;;15.38;7.63;;;;;;;25.29;60.80;100995.72;4983263;28;20225;-74
2023/10/02 12:03:59;;;;;;;14.73;6.95;;;;;;;25.50;61.39;100995.81;4991309;28;20247;-74
2023/10/02 12:06:27;;;;;;;13.25;6.38;;;;;;;25.52;62.37;100989.38;4990064;28;20235;-73
2023/10/02 12:09:01;;;;;;;15.32;6.82;;;;;;;25.50;60.76;100984.97;4988640;28;20211;-74
2023/10/02 12:11:30;;;;;;;18.40;7.65;;;;;;;25.52;61.22;100981.25;4987200;28;20300;-74
2023/10/02 12:13:57;;;;;;;14.02;6.60;;;;;;;25.55;59.82;100977.53;4992191;28;20205;-73
2023/10/02 12:16:23;;;;;;;15.38;6.88;;;;;;;25.61;60.55;100978.16;4991499;28;20330;-73